sensor_id;sensor_type;location;lat;lon;timestamp;P1;durP1;ratioP1;P2;durP2;ratioP2
56333;SDS011;42240;53.626;55.886;2024-03-06T00:00:26;0.50;;;0.50;;
56333;SDS011;42240;53.626;55.886;2024-03-06T00:02:03;0.60;;;0.60;;
56333;SDS011;42240;53.626;55.886;2024-03-06T00:03:37;0.60;;;0.60;;
56333;SDS011;42240;53.626;55.886;2024-03-06T00:05:11;0.60;;;0.60;;
56333;SDS011;42240;53.626;55.886;2024-03-06T00:06:45;0.50;;;0.50;;
56333;SDS011;42240;53.626;55.886;2024-03-06T00:08:20;0.60;;;0.60;;
56333;SDS011;42240;53.626;55.886;2024-03-06T00:09:54;0.50;;;0.50;;
56333;SDS011;42240;53.626;55.886;2024-03-06T00:11:30;0.50;;;0.50;;
56333;SDS011;42240;53.626;55.886;2024-03-06T00:13:04;0.50;;;0.50;;
56333;SDS011;42240;53.626;55.886;2024-03-06T00:14:38;0.50;;;0.50;;
56333;SDS011;42240;53.626;55.886;2024-03-06T00:16:12;0.50;;;0.50;;
56333;SDS011;42240;53.626;55.886;2024-03-06T00:17:51;0.60;;;0.60;;
56333;SDS011;42240;53.626;55.886;2024-03-06T00:19:25;0.50;;;0.50;;
56333;SDS011;42240;53.626;55.886;2024-03-06T00:21:03;0.60;;;0.60;;
56333;SDS011;42240;53.626;55.886;2024-03-06T00:22:37;0.50;;;0.50;;
56333;SDS011;42240;53.626;55.886;2024-03-06T00:24:12;0.50;;;0.50;;
56333;SDS011;42240;53.626;55.886;2024-03-06T00:25:46;0.50;;;0.50;;
56333;SDS011;42240;53.626;55.886;2024-03-06T00:27:20;0.50;;;0.50;;
56333;SDS011;42240;53.626;55.886;2024-03-06T00:28:54;0.50;;;0.50;;
56333;SDS011;42240;53.626;55.886;2024-03-06T00:30:27;0.50;;;0.50;;
56333;SDS011;42240;53.626;55.886;2024-03-06T00:32:03;0.50;;;0.50;;
56333;SDS011;42240;53.626;55.886;2024-03-06T00:33:37;0.50;;;0.50;;
56333;SDS011;42240;53.626;55.886;2024-03-06T00:35:11;0.60;;;0.60;;
56333;SDS011;42240;53.626;55.886;2024-03-06T00:36:49;0.50;;;0.50;;
56333;SDS011;42240;53.626;55.886;2024-03-06T00:38:25;0.60;;;0.60;;
56333;SDS011;42240;53.626;55.886;2024-03-06T00:39:59;0.60;;;0.60;;
56333;SDS011;42240;53.626;55.886;2024-03-06T00:41:34;0.60;;;0.60;;
56333;SDS011;42240;53.626;55.886;2024-03-06T00:43:09;0.60;;;0.60;;
56333;SDS011;42240;53.626;55.886;2024-03-06T00:44:43;0.50;;;0.50;;
56333;SDS011;42240;53.626;55.886;2024-03-06T00:46:17;0.50;;;0.50;;
56333;SDS011;42240;53.626;55.886;2024-03-06T00:47:51;0.50;;;0.50;;
56333;SDS011;42240;53.626;55.886;2024-03-06T00:49:28;0.50;;;0.50;;
56333;SDS011;42240;53.626;55.886;2024-03-06T00:51:02;0.50;;;0.50;;
56333;SDS011;42240;53.626;55.886;2024-03-06T00:52:36;0.50;;;0.50;;
56333;SDS011;42240;53.626;55.886;2024-03-06T00:54:11;0.50;;;0.50;;
56333;SDS011;42240;53.626;55.886;2024-03-06T00:55:48;0.50;;;0.50;;
56333;SDS011;42240;53.626;55.886;2024-03-06T00:57:23;0.60;;;0.60;;
56333;SDS011;42240;53.626;55.886;2024-03-06T00:58:56;0.50;;;0.50;;
56333;SDS011;42240;53.626;55.886;2024-03-06T01:00:32;0.60;;;0.60;;
56333;SDS011;42240;53.626;55.886;2024-03-06T01:02:06;0.50;;;0.50;;
56333;SDS011;42240;53.626;55.886;2024-03-06T01:03:40;0.60;;;0.60;;
56333;SDS011;42240;53.626;55.886;2024-03-06T01:05:14;0.60;;;0.60;;
56333;SDS011;42240;53.626;55.886;2024-03-06T01:06:49;0.60;;;0.60;;
56333;SDS011;42240;53.626;55.886;2024-03-06T01:08:22;0.50;;;0.50;;
56333;SDS011;42240;53.626;55.886;2024-03-06T01:09:58;0.50;;;0.50;;
56333;SDS011;42240;53.626;55.886;2024-03-06T01:11:33;0.50;;;0.50;;
56333;SDS011;42240;53.626;55.886;2024-03-06T01:13:06;0.50;;;0.50;;
56333;SDS011;42240;53.626;55.886;2024-03-06T01:14:43;0.50;;;0.50;;
56333;SDS011;42240;53.626;55.886;2024-03-06T01:16:17;0.50;;;0.50;;
56333;SDS011;42240;53.626;55.886;2024-03-06T01:17:52;0.50;;;0.50;;
56333;SDS011;42240;53.626;55.886;2024-03-06T01:19:26;0.50;;;0.50;;
56333;SDS011;42240;53.626;55.886;2024-03-06T01:21:01;0.50;;;0.50;;
56333;SDS011;42240;53.626;55.886;2024-03-06T01:22:37;0.50;;;0.50;;
56333;SDS011;42240;53.626;55.886;2024-03-06T01:24:11;0.50;;;0.50;;
56333;SDS011;42240;53.626;55.886;2024-03-06T01:25:44;0.50;;;0.50;;
56333;SDS011;42240;53.626;55.886;2024-03-06T01:27:21;0.50;;;0.50;;
56333;SDS011;42240;53.626;55.886;2024-03-06T01:28:57;0.50;;;0.50;;
56333;SDS011;42240;53.626;55.886;2024-03-06T01:30:32;0.50;;;0.50;;
56333;SDS011;42240;53.626;55.886;2024-03-06T01:32:05;0.60;;;0.60;;
56333;SDS011;42240;53.626;55.886;2024-03-06T01:33:39;0.50;;;0.50;;
56333;SDS011;42240;53.626;55.886;2024-03-06T01:35:13;0.50;;;0.50;;
56333;SDS011;42240;53.626;55.886;2024-03-06T01:36:47;0.50;;;0.50;;
56333;SDS011;42240;53.626;55.886;2024-03-06T01:38:22;0.50;;;0.50;;
56333;SDS011;42240;53.626;55.886;2024-03-06T01:39:55;0.50;;;0.50;;
56333;SDS011;42240;53.626;55.886;2024-03-06T01:41:29;0.50;;;0.50;;
56333;SDS011;42240;53.626;55.886;2024-03-06T01:43:03;0.50;;;0.50;;
56333;SDS011;42240;53.626;55.886;2024-03-06T01:44:40;0.50;;;0.50;;
56333;SDS011;42240;53.626;55.886;2024-03-06T01:46:13;0.50;;;0.50;;
56333;SDS011;42240;53.626;55.886;2024-03-06T01:47:47;0.50;;;0.50;;
56333;SDS011;42240;53.626;55.886;2024-03-06T01:49:26;0.50;;;0.50;;
56333;SDS011;42240;53.626;55.886;2024-03-06T01:51:15;0.53;;;0.53;;
56333;SDS011;42240;53.626;55.886;2024-03-06T01:52:49;0.50;;;0.50;;
56333;SDS011;42240;53.626;55.886;2024-03-06T01:54:24;0.50;;;0.50;;
56333;SDS011;42240;53.626;55.886;2024-03-06T01:55:58;0.50;;;0.50;;
56333;SDS011;42240;53.626;55.886;2024-03-06T01:57:33;0.50;;;0.50;;
56333;SDS011;42240;53.626;55.886;2024-03-06T01:59:08;0.50;;;0.50;;
56333;SDS011;42240;53.626;55.886;2024-03-06T02:01:00;0.50;;;0.50;;
56333;SDS011;42240;53.626;55.886;2024-03-06T02:02:34;0.50;;;0.50;;
56333;SDS011;42240;53.626;55.886;2024-03-06T02:04:08;0.50;;;0.50;;
56333;SDS011;42240;53.626;55.886;2024-03-06T02:05:42;0.60;;;0.60;;
56333;SDS011;42240;53.626;55.886;2024-03-06T02:07:16;0.50;;;0.50;;
56333;SDS011;42240;53.626;55.886;2024-03-06T02:08:51;0.50;;;0.50;;
56333;SDS011;42240;53.626;55.886;2024-03-06T02:10:30;0.50;;;0.50;;
56333;SDS011;42240;53.626;55.886;2024-03-06T02:12:08;0.50;;;0.50;;
56333;SDS011;42240;53.626;55.886;2024-03-06T02:13:43;0.50;;;0.50;;
56333;SDS011;42240;53.626;55.886;2024-03-06T02:15:17;0.53;;;0.53;;
56333;SDS011;42240;53.626;55.886;2024-03-06T02:16:57;0.50;;;0.50;;
56333;SDS011;42240;53.626;55.886;2024-03-06T02:18:31;0.50;;;0.50;;
56333;SDS011;42240;53.626;55.886;2024-03-06T02:20:05;0.50;;;0.50;;
56333;SDS011;42240;53.626;55.886;2024-03-06T02:21:40;0.50;;;0.50;;
56333;SDS011;42240;53.626;55.886;2024-03-06T02:23:13;0.50;;;0.50;;
56333;SDS011;42240;53.626;55.886;2024-03-06T02:24:48;0.50;;;0.50;;
56333;SDS011;42240;53.626;55.886;2024-03-06T02:26:22;0.50;;;0.50;;
56333;SDS011;42240;53.626;55.886;2024-03-06T02:27:56;0.60;;;0.60;;
56333;SDS011;42240;53.626;55.886;2024-03-06T02:29:30;0.60;;;0.60;;
56333;SDS011;42240;53.626;55.886;2024-03-06T02:31:03;0.50;;;0.50;;
56333;SDS011;42240;53.626;55.886;2024-03-06T02:32:45;0.50;;;0.50;;
56333;SDS011;42240;53.626;55.886;2024-03-06T02:34:19;0.50;;;0.50;;
56333;SDS011;42240;53.626;55.886;2024-03-06T02:35:53;0.50;;;0.50;;
56333;SDS011;42240;53.626;55.886;2024-03-06T02:37:26;0.50;;;0.50;;
56333;SDS011;42240;53.626;55.886;2024-03-06T02:39:00;0.50;;;0.50;;
56333;SDS011;42240;53.626;55.886;2024-03-06T02:40:37;0.50;;;0.50;;
56333;SDS011;42240;53.626;55.886;2024-03-06T02:42:10;0.50;;;0.50;;
56333;SDS011;42240;53.626;55.886;2024-03-06T02:43:44;0.60;;;0.60;;
56333;SDS011;42240;53.626;55.886;2024-03-06T02:45:17;0.50;;;0.50;;
56333;SDS011;42240;53.626;55.886;2024-03-06T02:46:50;0.50;;;0.50;;
56333;SDS011;42240;53.626;55.886;2024-03-06T02:48:24;0.50;;;0.50;;
56333;SDS011;42240;53.626;55.886;2024-03-06T02:49:58;0.50;;;0.50;;
56333;SDS011;42240;53.626;55.886;2024-03-06T02:51:34;0.57;;;0.57;;
56333;SDS011;42240;53.626;55.886;2024-03-06T02:53:10;0.50;;;0.50;;
56333;SDS011;42240;53.626;55.886;2024-03-06T02:54:43;0.50;;;0.50;;
56333;SDS011;42240;53.626;55.886;2024-03-06T02:56:17;0.50;;;0.50;;
56333;SDS011;42240;53.626;55.886;2024-03-06T02:57:51;0.50;;;0.50;;
56333;SDS011;42240;53.626;55.886;2024-03-06T02:59:24;0.50;;;0.50;;
56333;SDS011;42240;53.626;55.886;2024-03-06T03:00:57;0.50;;;0.50;;
56333;SDS011;42240;53.626;55.886;2024-03-06T03:02:30;0.50;;;0.50;;
56333;SDS011;42240;53.626;55.886;2024-03-06T03:04:03;0.50;;;0.50;;
56333;SDS011;42240;53.626;55.886;2024-03-06T03:05:39;0.50;;;0.50;;
56333;SDS011;42240;53.626;55.886;2024-03-06T03:07:12;0.50;;;0.50;;
56333;SDS011;42240;53.626;55.886;2024-03-06T03:08:45;0.50;;;0.50;;
56333;SDS011;42240;53.626;55.886;2024-03-06T03:10:18;0.50;;;0.50;;
56333;SDS011;42240;53.626;55.886;2024-03-06T03:11:51;0.60;;;0.60;;
56333;SDS011;42240;53.626;55.886;2024-03-06T03:13:24;0.50;;;0.50;;
56333;SDS011;42240;53.626;55.886;2024-03-06T03:14:57;0.60;;;0.60;;
56333;SDS011;42240;53.626;55.886;2024-03-06T03:16:30;0.50;;;0.50;;
56333;SDS011;42240;53.626;55.886;2024-03-06T03:18:05;0.50;;;0.50;;
56333;SDS011;42240;53.626;55.886;2024-03-06T03:19:38;0.50;;;0.50;;
56333;SDS011;42240;53.626;55.886;2024-03-06T03:21:12;0.60;;;0.60;;
56333;SDS011;42240;53.626;55.886;2024-03-06T03:22:45;0.50;;;0.50;;
56333;SDS011;42240;53.626;55.886;2024-03-06T03:24:18;0.50;;;0.50;;
56333;SDS011;42240;53.626;55.886;2024-03-06T03:25:53;0.50;;;0.50;;
56333;SDS011;42240;53.626;55.886;2024-03-06T03:27:26;0.50;;;0.50;;
56333;SDS011;42240;53.626;55.886;2024-03-06T03:29:00;0.50;;;0.50;;
56333;SDS011;42240;53.626;55.886;2024-03-06T03:30:33;0.50;;;0.50;;
56333;SDS011;42240;53.626;55.886;2024-03-06T03:32:06;0.60;;;0.60;;
56333;SDS011;42240;53.626;55.886;2024-03-06T03:33:40;0.50;;;0.50;;
56333;SDS011;42240;53.626;55.886;2024-03-06T03:35:13;0.50;;;0.50;;
56333;SDS011;42240;53.626;55.886;2024-03-06T03:36:47;0.60;;;0.60;;
56333;SDS011;42240;53.626;55.886;2024-03-06T03:38:28;0.50;;;0.50;;
56333;SDS011;42240;53.626;55.886;2024-03-06T03:40:02;0.50;;;0.50;;
56333;SDS011;42240;53.626;55.886;2024-03-06T03:41:36;0.50;;;0.50;;
56333;SDS011;42240;53.626;55.886;2024-03-06T03:43:11;0.50;;;0.50;;
56333;SDS011;42240;53.626;55.886;2024-03-06T03:44:44;0.50;;;0.50;;
56333;SDS011;42240;53.626;55.886;2024-03-06T03:46:21;0.50;;;0.50;;
56333;SDS011;42240;53.626;55.886;2024-03-06T03:47:56;0.50;;;0.50;;
56333;SDS011;42240;53.626;55.886;2024-03-06T03:49:30;0.50;;;0.50;;
56333;SDS011;42240;53.626;55.886;2024-03-06T03:51:04;0.50;;;0.50;;
56333;SDS011;42240;53.626;55.886;2024-03-06T03:52:40;0.50;;;0.50;;
56333;SDS011;42240;53.626;55.886;2024-03-06T03:54:19;0.50;;;0.50;;
56333;SDS011;42240;53.626;55.886;2024-03-06T03:55:53;0.50;;;0.50;;
56333;SDS011;42240;53.626;55.886;2024-03-06T03:57:27;0.50;;;0.50;;
56333;SDS011;42240;53.626;55.886;2024-03-06T03:59:07;0.50;;;0.50;;
56333;SDS011;42240;53.626;55.886;2024-03-06T04:00:41;0.50;;;0.50;;
56333;SDS011;42240;53.626;55.886;2024-03-06T04:02:15;0.50;;;0.50;;
56333;SDS011;42240;53.626;55.886;2024-03-06T04:03:48;0.50;;;0.50;;
56333;SDS011;42240;53.626;55.886;2024-03-06T04:05:21;0.50;;;0.50;;
56333;SDS011;42240;53.626;55.886;2024-03-06T04:06:56;0.50;;;0.50;;
56333;SDS011;42240;53.626;55.886;2024-03-06T04:08:31;0.50;;;0.50;;
56333;SDS011;42240;53.626;55.886;2024-03-06T04:10:04;0.50;;;0.50;;
56333;SDS011;42240;53.626;55.886;2024-03-06T04:11:38;0.50;;;0.50;;
56333;SDS011;42240;53.626;55.886;2024-03-06T04:13:12;0.50;;;0.50;;
56333;SDS011;42240;53.626;55.886;2024-03-06T04:14:49;0.50;;;0.50;;
56333;SDS011;42240;53.626;55.886;2024-03-06T04:16:22;0.50;;;0.50;;
56333;SDS011;42240;53.626;55.886;2024-03-06T04:17:55;0.50;;;0.50;;
56333;SDS011;42240;53.626;55.886;2024-03-06T04:19:29;0.50;;;0.50;;
56333;SDS011;42240;53.626;55.886;2024-03-06T04:21:03;0.50;;;0.50;;
56333;SDS011;42240;53.626;55.886;2024-03-06T04:22:40;0.50;;;0.50;;
56333;SDS011;42240;53.626;55.886;2024-03-06T04:24:13;0.50;;;0.50;;
56333;SDS011;42240;53.626;55.886;2024-03-06T04:25:47;0.50;;;0.50;;
56333;SDS011;42240;53.626;55.886;2024-03-06T04:27:21;0.50;;;0.50;;
56333;SDS011;42240;53.626;55.886;2024-03-06T04:28:57;0.50;;;0.50;;
56333;SDS011;42240;53.626;55.886;2024-03-06T04:30:31;0.50;;;0.50;;
56333;SDS011;42240;53.626;55.886;2024-03-06T04:32:05;0.50;;;0.50;;
56333;SDS011;42240;53.626;55.886;2024-03-06T04:33:38;0.50;;;0.50;;
56333;SDS011;42240;53.626;55.886;2024-03-06T04:35:15;0.50;;;0.50;;
56333;SDS011;42240;53.626;55.886;2024-03-06T04:36:48;0.50;;;0.50;;
56333;SDS011;42240;53.626;55.886;2024-03-06T04:38:21;0.50;;;0.50;;
56333;SDS011;42240;53.626;55.886;2024-03-06T04:39:54;0.50;;;0.50;;
56333;SDS011;42240;53.626;55.886;2024-03-06T04:41:27;0.50;;;0.50;;
56333;SDS011;42240;53.626;55.886;2024-03-06T04:43:00;0.50;;;0.50;;
56333;SDS011;42240;53.626;55.886;2024-03-06T04:44:34;0.50;;;0.50;;
56333;SDS011;42240;53.626;55.886;2024-03-06T04:46:12;0.50;;;0.50;;
56333;SDS011;42240;53.626;55.886;2024-03-06T04:47:47;0.50;;;0.50;;
56333;SDS011;42240;53.626;55.886;2024-03-06T04:49:42;0.50;;;0.50;;
56333;SDS011;42240;53.626;55.886;2024-03-06T04:51:31;0.50;;;0.50;;
56333;SDS011;42240;53.626;55.886;2024-03-06T04:53:11;0.50;;;0.50;;
56333;SDS011;42240;53.626;55.886;2024-03-06T04:54:45;0.50;;;0.50;;
56333;SDS011;42240;53.626;55.886;2024-03-06T04:56:19;0.50;;;0.50;;
56333;SDS011;42240;53.626;55.886;2024-03-06T04:57:54;0.50;;;0.50;;
56333;SDS011;42240;53.626;55.886;2024-03-06T04:59:30;0.50;;;0.50;;
56333;SDS011;42240;53.626;55.886;2024-03-06T05:01:03;0.50;;;0.50;;
56333;SDS011;42240;53.626;55.886;2024-03-06T05:02:37;0.50;;;0.50;;
56333;SDS011;42240;53.626;55.886;2024-03-06T05:04:28;0.50;;;0.50;;
56333;SDS011;42240;53.626;55.886;2024-03-06T05:06:18;0.50;;;0.50;;
56333;SDS011;42240;53.626;55.886;2024-03-06T05:08:09;0.50;;;0.50;;
56333;SDS011;42240;53.626;55.886;2024-03-06T05:10:01;0.50;;;0.50;;
56333;SDS011;42240;53.626;55.886;2024-03-06T05:11:51;0.43;;;0.43;;
56333;SDS011;42240;53.626;55.886;2024-03-06T05:13:41;0.50;;;0.50;;
56333;SDS011;42240;53.626;55.886;2024-03-06T05:15:31;0.50;;;0.50;;
56333;SDS011;42240;53.626;55.886;2024-03-06T05:17:22;0.50;;;0.50;;
56333;SDS011;42240;53.626;55.886;2024-03-06T05:19:12;0.50;;;0.50;;
56333;SDS011;42240;53.626;55.886;2024-03-06T05:21:03;0.40;;;0.40;;
56333;SDS011;42240;53.626;55.886;2024-03-06T05:22:54;0.50;;;0.50;;
56333;SDS011;42240;53.626;55.886;2024-03-06T05:24:44;0.50;;;0.50;;
56333;SDS011;42240;53.626;55.886;2024-03-06T05:26:35;0.50;;;0.50;;
56333;SDS011;42240;53.626;55.886;2024-03-06T05:28:24;0.50;;;0.50;;
56333;SDS011;42240;53.626;55.886;2024-03-06T05:30:15;0.50;;;0.50;;
56333;SDS011;42240;53.626;55.886;2024-03-06T05:32:05;0.43;;;0.43;;
56333;SDS011;42240;53.626;55.886;2024-03-06T05:33:58;0.50;;;0.50;;
56333;SDS011;42240;53.626;55.886;2024-03-06T05:35:50;0.50;;;0.50;;
56333;SDS011;42240;53.626;55.886;2024-03-06T05:37:40;0.50;;;0.50;;
56333;SDS011;42240;53.626;55.886;2024-03-06T05:39:30;0.50;;;0.50;;
56333;SDS011;42240;53.626;55.886;2024-03-06T05:41:21;0.50;;;0.50;;
56333;SDS011;42240;53.626;55.886;2024-03-06T05:43:11;0.50;;;0.50;;
56333;SDS011;42240;53.626;55.886;2024-03-06T05:45:01;0.45;;;0.45;;
56333;SDS011;42240;53.626;55.886;2024-03-06T05:47:00;0.50;;;0.50;;
56333;SDS011;42240;53.626;55.886;2024-03-06T05:48:52;0.50;;;0.50;;
56333;SDS011;42240;53.626;55.886;2024-03-06T05:50:42;0.50;;;0.50;;
56333;SDS011;42240;53.626;55.886;2024-03-06T05:52:32;0.50;;;0.50;;
56333;SDS011;42240;53.626;55.886;2024-03-06T05:54:23;0.40;;;0.40;;
56333;SDS011;42240;53.626;55.886;2024-03-06T05:56:14;0.43;;;0.43;;
56333;SDS011;42240;53.626;55.886;2024-03-06T05:58:04;0.43;;;0.43;;
56333;SDS011;42240;53.626;55.886;2024-03-06T05:59:45;0.40;;;0.40;;
56333;SDS011;42240;53.626;55.886;2024-03-06T06:01:18;0.30;;;0.30;;
56333;SDS011;42240;53.626;55.886;2024-03-06T06:02:53;0.40;;;0.40;;
56333;SDS011;42240;53.626;55.886;2024-03-06T06:04:26;0.40;;;0.40;;
56333;SDS011;42240;53.626;55.886;2024-03-06T06:06:00;0.40;;;0.40;;
56333;SDS011;42240;53.626;55.886;2024-03-06T06:07:33;0.35;;;0.35;;
56333;SDS011;42240;53.626;55.886;2024-03-06T06:09:06;0.40;;;0.40;;
56333;SDS011;42240;53.626;55.886;2024-03-06T06:10:39;0.32;;;0.32;;
56333;SDS011;42240;53.626;55.886;2024-03-06T06:12:13;0.40;;;0.40;;
56333;SDS011;42240;53.626;55.886;2024-03-06T06:13:55;0.40;;;0.40;;
56333;SDS011;42240;53.626;55.886;2024-03-06T06:15:53;0.40;;;0.40;;
56333;SDS011;42240;53.626;55.886;2024-03-06T06:17:26;0.47;;;0.47;;
56333;SDS011;42240;53.626;55.886;2024-03-06T06:18:59;0.40;;;0.40;;
56333;SDS011;42240;53.626;55.886;2024-03-06T06:20:32;0.40;;;0.40;;
56333;SDS011;42240;53.626;55.886;2024-03-06T06:22:06;0.47;;;0.47;;
56333;SDS011;42240;53.626;55.886;2024-03-06T06:23:39;0.50;;;0.50;;
56333;SDS011;42240;53.626;55.886;2024-03-06T06:25:12;0.40;;;0.40;;
56333;SDS011;42240;53.626;55.886;2024-03-06T06:26:46;0.50;;;0.50;;
56333;SDS011;42240;53.626;55.886;2024-03-06T06:28:19;0.40;;;0.40;;
56333;SDS011;42240;53.626;55.886;2024-03-06T06:31:27;0.40;;;0.40;;
56333;SDS011;42240;53.626;55.886;2024-03-06T06:33:00;0.40;;;0.40;;
56333;SDS011;42240;53.626;55.886;2024-03-06T06:34:33;0.40;;;0.40;;
56333;SDS011;42240;53.626;55.886;2024-03-06T06:36:06;0.40;;;0.40;;
56333;SDS011;42240;53.626;55.886;2024-03-06T06:37:39;0.40;;;0.40;;
56333;SDS011;42240;53.626;55.886;2024-03-06T06:39:12;0.38;;;0.38;;
56333;SDS011;42240;53.626;55.886;2024-03-06T06:40:45;0.40;;;0.40;;
56333;SDS011;42240;53.626;55.886;2024-03-06T06:42:18;0.40;;;0.40;;
56333;SDS011;42240;53.626;55.886;2024-03-06T06:43:51;0.40;;;0.40;;
56333;SDS011;42240;53.626;55.886;2024-03-06T06:45:24;0.35;;;0.35;;
56333;SDS011;42240;53.626;55.886;2024-03-06T06:46:59;0.40;;;0.40;;
56333;SDS011;42240;53.626;55.886;2024-03-06T06:48:32;0.40;;;0.40;;
56333;SDS011;42240;53.626;55.886;2024-03-06T06:50:08;0.40;;;0.40;;
56333;SDS011;42240;53.626;55.886;2024-03-06T06:51:41;0.30;;;0.30;;
56333;SDS011;42240;53.626;55.886;2024-03-06T06:53:14;0.30;;;0.30;;
56333;SDS011;42240;53.626;55.886;2024-03-06T06:54:48;0.35;;;0.35;;
56333;SDS011;42240;53.626;55.886;2024-03-06T06:56:22;0.30;;;0.30;;
56333;SDS011;42240;53.626;55.886;2024-03-06T06:57:56;0.30;;;0.30;;
56333;SDS011;42240;53.626;55.886;2024-03-06T06:59:29;0.30;;;0.30;;
56333;SDS011;42240;53.626;55.886;2024-03-06T07:01:02;0.30;;;0.30;;
56333;SDS011;42240;53.626;55.886;2024-03-06T07:02:36;0.40;;;0.40;;
56333;SDS011;42240;53.626;55.886;2024-03-06T07:04:11;0.30;;;0.30;;
56333;SDS011;42240;53.626;55.886;2024-03-06T07:07:17;0.35;;;0.35;;
56333;SDS011;42240;53.626;55.886;2024-03-06T07:08:50;0.40;;;0.40;;
56333;SDS011;42240;53.626;55.886;2024-03-06T07:11:56;0.40;;;0.40;;
56333;SDS011;42240;53.626;55.886;2024-03-06T07:13:29;0.30;;;0.30;;
56333;SDS011;42240;53.626;55.886;2024-03-06T07:15:02;0.30;;;0.30;;
56333;SDS011;42240;53.626;55.886;2024-03-06T07:16:43;0.40;;;0.40;;
56333;SDS011;42240;53.626;55.886;2024-03-06T07:18:17;0.40;;;0.40;;
56333;SDS011;42240;53.626;55.886;2024-03-06T07:19:50;0.40;;;0.40;;
56333;SDS011;42240;53.626;55.886;2024-03-06T07:21:24;0.30;;;0.30;;
56333;SDS011;42240;53.626;55.886;2024-03-06T07:22:59;0.40;;;0.40;;
56333;SDS011;42240;53.626;55.886;2024-03-06T07:26:08;0.30;;;0.30;;
56333;SDS011;42240;53.626;55.886;2024-03-06T07:29:13;0.40;;;0.40;;
56333;SDS011;42240;53.626;55.886;2024-03-06T07:30:47;0.30;;;0.30;;
56333;SDS011;42240;53.626;55.886;2024-03-06T07:32:20;0.40;;;0.40;;
56333;SDS011;42240;53.626;55.886;2024-03-06T07:33:53;0.40;;;0.40;;
56333;SDS011;42240;53.626;55.886;2024-03-06T07:36:59;0.40;;;0.40;;
56333;SDS011;42240;53.626;55.886;2024-03-06T07:38:36;0.40;;;0.40;;
56333;SDS011;42240;53.626;55.886;2024-03-06T07:40:09;0.40;;;0.40;;
56333;SDS011;42240;53.626;55.886;2024-03-06T07:41:42;0.38;;;0.38;;
56333;SDS011;42240;53.626;55.886;2024-03-06T07:43:15;0.35;;;0.35;;
56333;SDS011;42240;53.626;55.886;2024-03-06T07:44:48;0.50;;;0.50;;
56333;SDS011;42240;53.626;55.886;2024-03-06T07:46:22;0.30;;;0.30;;
56333;SDS011;42240;53.626;55.886;2024-03-06T07:47:55;0.40;;;0.40;;
56333;SDS011;42240;53.626;55.886;2024-03-06T07:49:28;0.40;;;0.40;;
56333;SDS011;42240;53.626;55.886;2024-03-06T07:51:01;0.30;;;0.30;;
56333;SDS011;42240;53.626;55.886;2024-03-06T07:52:35;0.30;;;0.30;;
56333;SDS011;42240;53.626;55.886;2024-03-06T07:54:08;0.32;;;0.32;;
56333;SDS011;42240;53.626;55.886;2024-03-06T07:55:42;0.20;;;0.20;;
56333;SDS011;42240;53.626;55.886;2024-03-06T07:57:15;0.40;;;0.40;;
56333;SDS011;42240;53.626;55.886;2024-03-06T07:58:48;0.30;;;0.30;;
56333;SDS011;42240;53.626;55.886;2024-03-06T08:00:22;0.40;;;0.40;;
56333;SDS011;42240;53.626;55.886;2024-03-06T08:01:56;0.30;;;0.30;;
56333;SDS011;42240;53.626;55.886;2024-03-06T08:03:29;0.30;;;0.30;;
56333;SDS011;42240;53.626;55.886;2024-03-06T08:05:02;0.30;;;0.30;;
56333;SDS011;42240;53.626;55.886;2024-03-06T08:06:36;0.30;;;0.30;;
56333;SDS011;42240;53.626;55.886;2024-03-06T08:08:09;0.30;;;0.30;;
56333;SDS011;42240;53.626;55.886;2024-03-06T08:09:43;0.30;;;0.30;;
56333;SDS011;42240;53.626;55.886;2024-03-06T08:11:16;0.30;;;0.30;;
56333;SDS011;42240;53.626;55.886;2024-03-06T08:12:50;0.30;;;0.30;;
56333;SDS011;42240;53.626;55.886;2024-03-06T08:14:22;0.30;;;0.30;;
56333;SDS011;42240;53.626;55.886;2024-03-06T08:15:56;0.32;;;0.32;;
56333;SDS011;42240;53.626;55.886;2024-03-06T08:17:29;0.30;;;0.30;;
56333;SDS011;42240;53.626;55.886;2024-03-06T08:19:01;0.30;;;0.30;;
56333;SDS011;42240;53.626;55.886;2024-03-06T08:20:34;0.30;;;0.30;;
56333;SDS011;42240;53.626;55.886;2024-03-06T08:23:39;0.30;;;0.30;;
56333;SDS011;42240;53.626;55.886;2024-03-06T08:25:12;0.30;;;0.30;;
56333;SDS011;42240;53.626;55.886;2024-03-06T08:26:45;0.30;;;0.30;;
56333;SDS011;42240;53.626;55.886;2024-03-06T08:28:20;0.30;;;0.30;;
56333;SDS011;42240;53.626;55.886;2024-03-06T08:29:53;0.30;;;0.30;;
56333;SDS011;42240;53.626;55.886;2024-03-06T08:32:59;0.40;;;0.40;;
56333;SDS011;42240;53.626;55.886;2024-03-06T08:34:33;0.30;;;0.30;;
56333;SDS011;42240;53.626;55.886;2024-03-06T08:37:39;0.30;;;0.30;;
56333;SDS011;42240;53.626;55.886;2024-03-06T08:39:12;0.20;;;0.20;;
56333;SDS011;42240;53.626;55.886;2024-03-06T08:40:47;0.40;;;0.40;;
56333;SDS011;42240;53.626;55.886;2024-03-06T08:42:21;0.30;;;0.30;;
56333;SDS011;42240;53.626;55.886;2024-03-06T08:43:54;0.30;;;0.30;;
56333;SDS011;42240;53.626;55.886;2024-03-06T08:45:27;0.30;;;0.30;;
56333;SDS011;42240;53.626;55.886;2024-03-06T08:47:00;0.30;;;0.30;;
56333;SDS011;42240;53.626;55.886;2024-03-06T08:48:33;0.40;;;0.40;;
56333;SDS011;42240;53.626;55.886;2024-03-06T08:50:06;0.30;;;0.30;;
56333;SDS011;42240;53.626;55.886;2024-03-06T08:51:40;0.30;;;0.30;;
56333;SDS011;42240;53.626;55.886;2024-03-06T08:54:46;0.30;;;0.30;;
56333;SDS011;42240;53.626;55.886;2024-03-06T08:56:20;0.30;;;0.30;;
56333;SDS011;42240;53.626;55.886;2024-03-06T08:57:53;0.30;;;0.30;;
56333;SDS011;42240;53.626;55.886;2024-03-06T08:59:26;0.30;;;0.30;;
56333;SDS011;42240;53.626;55.886;2024-03-06T09:01:00;0.30;;;0.30;;
56333;SDS011;42240;53.626;55.886;2024-03-06T09:02:33;0.30;;;0.30;;
56333;SDS011;42240;53.626;55.886;2024-03-06T09:04:06;0.30;;;0.30;;
56333;SDS011;42240;53.626;55.886;2024-03-06T09:05:39;0.30;;;0.30;;
56333;SDS011;42240;53.626;55.886;2024-03-06T09:07:12;0.30;;;0.30;;
56333;SDS011;42240;53.626;55.886;2024-03-06T09:08:46;0.30;;;0.30;;
56333;SDS011;42240;53.626;55.886;2024-03-06T09:10:21;0.30;;;0.30;;
56333;SDS011;42240;53.626;55.886;2024-03-06T09:11:53;0.40;;;0.40;;
56333;SDS011;42240;53.626;55.886;2024-03-06T09:13:27;0.30;;;0.30;;
56333;SDS011;42240;53.626;55.886;2024-03-06T09:15:03;0.30;;;0.30;;
56333;SDS011;42240;53.626;55.886;2024-03-06T09:16:40;0.40;;;0.40;;
56333;SDS011;42240;53.626;55.886;2024-03-06T09:18:13;0.30;;;0.30;;
56333;SDS011;42240;53.626;55.886;2024-03-06T09:19:49;0.30;;;0.30;;
56333;SDS011;42240;53.626;55.886;2024-03-06T09:21:39;0.30;;;0.30;;
56333;SDS011;42240;53.626;55.886;2024-03-06T09:23:11;0.40;;;0.40;;
56333;SDS011;42240;53.626;55.886;2024-03-06T09:26:17;0.30;;;0.30;;
56333;SDS011;42240;53.626;55.886;2024-03-06T09:27:50;0.30;;;0.30;;
56333;SDS011;42240;53.626;55.886;2024-03-06T09:30:55;0.40;;;0.40;;
56333;SDS011;42240;53.626;55.886;2024-03-06T09:32:29;0.40;;;0.40;;
56333;SDS011;42240;53.626;55.886;2024-03-06T09:34:03;0.40;;;0.40;;
56333;SDS011;42240;53.626;55.886;2024-03-06T09:35:36;0.30;;;0.30;;
56333;SDS011;42240;53.626;55.886;2024-03-06T09:37:10;0.30;;;0.30;;
56333;SDS011;42240;53.626;55.886;2024-03-06T09:38:42;0.40;;;0.40;;
56333;SDS011;42240;53.626;55.886;2024-03-06T09:40:22;0.30;;;0.30;;
56333;SDS011;42240;53.626;55.886;2024-03-06T09:41:57;0.40;;;0.40;;
56333;SDS011;42240;53.626;55.886;2024-03-06T09:43:31;0.30;;;0.30;;
56333;SDS011;42240;53.626;55.886;2024-03-06T09:46:37;0.40;;;0.40;;
56333;SDS011;42240;53.626;55.886;2024-03-06T09:48:10;0.30;;;0.30;;